Liberty of The Seas — C6VQ8 — position and weather

sailwx.info

Track history (hours):
 
Tides and Currents Weather Stations Pressure Air Temp Water Temp Dewpoint Dewpoint Depression Visibility Wind Speed Wind Dir Waves Ship Positions

Liberty of The Seas

Last reported at 2017-Mar-20 01:18 UTC. Time now 2017-Mar-23 23:56 UTC.
Position N 28°53' W 093°58'.

Type: Passenger vessel. MMSI: 309436000.

Date/timePositionNaut miles runAvg speedWind from/ knotsBaromVisibWave heightAir tempDewpointWater temp
2017-Mar-20 01:18N 28°53' W 093°58'1214.7
2017-Mar-20 00:31N 29°00' W 094°09'3812.8
2017-Mar-19 21:33N 29°19' W 094°47'1 0.1
2017-Mar-19 10:26N 29°20' W 094°46'  
2017-Mar-14 21:34N 20°35' W 086°56'6 6.3
2017-Mar-14 20:32N 20°29' W 086°59'0 0.0
2017-Mar-14 19:32N 20°29' W 086°59'0 0.0
2017-Mar-14 18:32N 20°29' W 086°59'0 0.0
2017-Mar-14 17:32N 20°29' W 086°59'0 0.0
2017-Mar-14 16:32N 20°29' W 086°59'0 0.0
2017-Mar-14 15:32N 20°29' W 086°59'0 0.0
2017-Mar-14 14:32N 20°29' W 086°59'0 0.0
2017-Mar-14 13:32N 20°29' W 086°59'0 0.0
2017-Mar-14 12:32N 20°29' W 086°59'1 0.6
2017-Mar-14 11:34N 20°30' W 086°59'1414.1
2017-Mar-14 10:33N 20°42' W 086°51'67418.5
2017-Mar-12 22:08N 29°20' W 094°46'67614.2
2017-Mar-10 22:33N 20°36' W 086°55'8 7.8
2017-Mar-10 21:32N 20°29' W 086°59'0 0.0
2017-Mar-10 20:32N 20°29' W 086°59'0 0.0
2017-Mar-10 19:32N 20°29' W 086°59'0 0.0
2017-Mar-10 18:29N 20°29' W 086°59'0 0.0
2017-Mar-10 17:32N 20°29' W 086°59'0 0.0
2017-Mar-10 16:29N 20°29' W 086°59'0 0.0
2017-Mar-10 15:29N 20°29' W 086°59'0 0.0
2017-Mar-10 14:29N 20°29' W 086°59'0 0.0
2017-Mar-10 13:32N 20°29' W 086°59'0 0.0
2017-Mar-10 12:32N 20°29' W 086°59'1 1.0
2017-Mar-10 11:33N 20°29' W 086°60'  
Track history (hours):
 
Tides and Currents Weather Stations Pressure Air Temp Water Temp Dewpoint Dewpoint Depression Visibility Wind Speed Wind Dir Waves Ship Positions

Liberty of The Seas

Last reported at 2017-Mar-20 01:18 UTC. Time now 2017-Mar-23 23:56 UTC.
Position N 28°53' W 093°58'.

Type: Passenger vessel. MMSI: 309436000.

Date/timePositionNaut miles runAvg speedWind from/ knotsBaromVisibWave heightAir tempDewpointWater temp
2017-Mar-20 01:18N 28°53' W 093°58'1214.7
2017-Mar-20 00:31N 29°00' W 094°09'3812.8
2017-Mar-19 21:33N 29°19' W 094°47'1 0.1
2017-Mar-19 10:26N 29°20' W 094°46'  
2017-Mar-14 21:34N 20°35' W 086°56'6 6.3
2017-Mar-14 20:32N 20°29' W 086°59'0 0.0
2017-Mar-14 19:32N 20°29' W 086°59'0 0.0
2017-Mar-14 18:32N 20°29' W 086°59'0 0.0
2017-Mar-14 17:32N 20°29' W 086°59'0 0.0
2017-Mar-14 16:32N 20°29' W 086°59'0 0.0
2017-Mar-14 15:32N 20°29' W 086°59'0 0.0
2017-Mar-14 14:32N 20°29' W 086°59'0 0.0
2017-Mar-14 13:32N 20°29' W 086°59'0 0.0
2017-Mar-14 12:32N 20°29' W 086°59'1 0.6
2017-Mar-14 11:34N 20°30' W 086°59'1414.1
2017-Mar-14 10:33N 20°42' W 086°51'67418.5
2017-Mar-12 22:08N 29°20' W 094°46'67614.2
2017-Mar-10 22:33N 20°36' W 086°55'8 7.8
2017-Mar-10 21:32N 20°29' W 086°59'0 0.0
2017-Mar-10 20:32N 20°29' W 086°59'0 0.0
2017-Mar-10 19:32N 20°29' W 086°59'0 0.0
2017-Mar-10 18:29N 20°29' W 086°59'0 0.0
2017-Mar-10 17:32N 20°29' W 086°59'0 0.0
2017-Mar-10 16:29N 20°29' W 086°59'0 0.0
2017-Mar-10 15:29N 20°29' W 086°59'0 0.0
2017-Mar-10 14:29N 20°29' W 086°59'0 0.0
2017-Mar-10 13:32N 20°29' W 086°59'0 0.0
2017-Mar-10 12:32N 20°29' W 086°59'1 1.0
2017-Mar-10 11:33N 20°29' W 086°60'  

Dump ship's entire track history